sensor_id;sensor_type;location;lat;lon;timestamp;temperature;humidity
40816;DHT22;26535;48.788;9.214;2023-12-07T00:01:21;3.40;99.90
40816;DHT22;26535;48.788;9.214;2023-12-07T00:03:47;3.40;99.90
40816;DHT22;26535;48.788;9.214;2023-12-07T00:06:13;3.40;99.90
40816;DHT22;26535;48.788;9.214;2023-12-07T00:08:38;3.50;99.90
40816;DHT22;26535;48.788;9.214;2023-12-07T00:11:04;3.50;99.90
40816;DHT22;26535;48.788;9.214;2023-12-07T00:13:30;3.50;99.90
40816;DHT22;26535;48.788;9.214;2023-12-07T00:15:55;3.50;99.90
40816;DHT22;26535;48.788;9.214;2023-12-07T00:18:21;3.50;99.90
40816;DHT22;26535;48.788;9.214;2023-12-07T00:20:46;3.50;99.90
40816;DHT22;26535;48.788;9.214;2023-12-07T00:23:12;3.50;99.90
40816;DHT22;26535;48.788;9.214;2023-12-07T00:25:45;3.50;99.90
40816;DHT22;26535;48.788;9.214;2023-12-07T00:28:14;3.60;99.90
40816;DHT22;26535;48.788;9.214;2023-12-07T00:30:45;3.60;99.90
40816;DHT22;26535;48.788;9.214;2023-12-07T00:33:11;3.60;99.90
40816;DHT22;26535;48.788;9.214;2023-12-07T00:35:43;3.60;99.90
40816;DHT22;26535;48.788;9.214;2023-12-07T00:38:08;3.70;99.90
40816;DHT22;26535;48.788;9.214;2023-12-07T00:40:34;3.70;99.90
40816;DHT22;26535;48.788;9.214;2023-12-07T00:43:02;3.70;99.90
40816;DHT22;26535;48.788;9.214;2023-12-07T00:45:28;3.70;99.90
40816;DHT22;26535;48.788;9.214;2023-12-07T00:47:54;3.70;99.90
40816;DHT22;26535;48.788;9.214;2023-12-07T00:50:26;3.70;99.90
40816;DHT22;26535;48.788;9.214;2023-12-07T00:52:52;3.70;99.90
40816;DHT22;26535;48.788;9.214;2023-12-07T00:55:19;3.80;99.90
40816;DHT22;26535;48.788;9.214;2023-12-07T00:57:52;3.80;99.90
40816;DHT22;26535;48.788;9.214;2023-12-07T01:00:23;3.80;99.90
40816;DHT22;26535;48.788;9.214;2023-12-07T01:02:52;3.80;99.90
40816;DHT22;26535;48.788;9.214;2023-12-07T01:05:20;3.80;99.90
40816;DHT22;26535;48.788;9.214;2023-12-07T01:07:46;3.70;99.90
40816;DHT22;26535;48.788;9.214;2023-12-07T01:10:12;3.70;99.90
40816;DHT22;26535;48.788;9.214;2023-12-07T01:12:37;3.60;99.90
40816;DHT22;26535;48.788;9.214;2023-12-07T01:15:04;3.50;99.90
40816;DHT22;26535;48.788;9.214;2023-12-07T01:17:29;3.50;99.90
40816;DHT22;26535;48.788;9.214;2023-12-07T01:23:28;3.30;99.90
40816;DHT22;26535;48.788;9.214;2023-12-07T01:25:56;3.40;99.90
40816;DHT22;26535;48.788;9.214;2023-12-07T01:28:22;3.30;99.90
40816;DHT22;26535;48.788;9.214;2023-12-07T06:55:33;-0.20;99.90
40816;DHT22;26535;48.788;9.214;2023-12-07T06:58:24;-0.30;99.90
40816;DHT22;26535;48.788;9.214;2023-12-07T07:00:50;-0.30;99.90
40816;DHT22;26535;48.788;9.214;2023-12-07T07:05:59;-0.20;99.90
40816;DHT22;26535;48.788;9.214;2023-12-07T07:08:45;-0.30;99.90
40816;DHT22;26535;48.788;9.214;2023-12-07T07:11:49;-0.30;99.90
40816;DHT22;26535;48.788;9.214;2023-12-07T07:14:41;-0.30;99.90
40816;DHT22;26535;48.788;9.214;2023-12-07T07:17:24;-0.30;99.90
40816;DHT22;26535;48.788;9.214;2023-12-07T07:19:52;-0.20;99.90
40816;DHT22;26535;48.788;9.214;2023-12-07T07:22:19;-0.20;99.90
40816;DHT22;26535;48.788;9.214;2023-12-07T07:24:51;-0.10;99.90
40816;DHT22;26535;48.788;9.214;2023-12-07T07:27:17;-0.10;99.90
40816;DHT22;26535;48.788;9.214;2023-12-07T07:29:43;0.00;99.90
40816;DHT22;26535;48.788;9.214;2023-12-07T07:32:09;0.10;99.90
40816;DHT22;26535;48.788;9.214;2023-12-07T07:34:37;0.20;99.90
40816;DHT22;26535;48.788;9.214;2023-12-07T07:37:02;0.30;99.90
40816;DHT22;26535;48.788;9.214;2023-12-07T07:39:28;0.40;99.90
40816;DHT22;26535;48.788;9.214;2023-12-07T07:44:34;0.50;99.90
40816;DHT22;26535;48.788;9.214;2023-12-07T07:47:08;0.50;99.90
40816;DHT22;26535;48.788;9.214;2023-12-07T07:49:34;0.60;99.90
40816;DHT22;26535;48.788;9.214;2023-12-07T07:52:06;0.60;99.90
40816;DHT22;26535;48.788;9.214;2023-12-07T07:54:35;0.70;99.90
40816;DHT22;26535;48.788;9.214;2023-12-07T07:57:03;0.70;99.90
40816;DHT22;26535;48.788;9.214;2023-12-07T07:59:32;0.70;99.90
40816;DHT22;26535;48.788;9.214;2023-12-07T08:01:58;0.80;99.90
40816;DHT22;26535;48.788;9.214;2023-12-07T08:04:23;0.80;99.90
40816;DHT22;26535;48.788;9.214;2023-12-07T08:07:15;0.80;99.90
40816;DHT22;26535;48.788;9.214;2023-12-07T08:09:40;0.90;99.90
40816;DHT22;26535;48.788;9.214;2023-12-07T08:12:06;0.90;99.90
40816;DHT22;26535;48.788;9.214;2023-12-07T08:14:37;1.00;99.90
40816;DHT22;26535;48.788;9.214;2023-12-07T08:17:09;1.10;99.90
40816;DHT22;26535;48.788;9.214;2023-12-07T08:19:43;1.10;99.90
40816;DHT22;26535;48.788;9.214;2023-12-07T08:22:10;1.20;99.90
40816;DHT22;26535;48.788;9.214;2023-12-07T08:24:41;1.30;99.90
40816;DHT22;26535;48.788;9.214;2023-12-07T08:27:07;1.30;99.90
40816;DHT22;26535;48.788;9.214;2023-12-07T08:29:42;1.30;99.90
40816;DHT22;26535;48.788;9.214;2023-12-07T08:34:56;1.40;99.90
40816;DHT22;26535;48.788;9.214;2023-12-07T08:37:22;1.50;99.90
40816;DHT22;26535;48.788;9.214;2023-12-07T08:39:47;1.50;99.90
40816;DHT22;26535;48.788;9.214;2023-12-07T08:42:14;1.60;99.90
40816;DHT22;26535;48.788;9.214;2023-12-07T08:44:40;1.70;99.90
40816;DHT22;26535;48.788;9.214;2023-12-07T08:47:09;1.70;99.90
40816;DHT22;26535;48.788;9.214;2023-12-07T08:49:38;1.70;99.90
40816;DHT22;26535;48.788;9.214;2023-12-07T08:52:19;1.70;99.90
40816;DHT22;26535;48.788;9.214;2023-12-07T08:54:44;1.80;99.90
40816;DHT22;26535;48.788;9.214;2023-12-07T08:57:10;1.90;99.90
40816;DHT22;26535;48.788;9.214;2023-12-07T08:59:39;1.90;99.90
40816;DHT22;26535;48.788;9.214;2023-12-07T09:02:05;2.00;99.90
40816;DHT22;26535;48.788;9.214;2023-12-07T09:05:07;2.00;99.90
40816;DHT22;26535;48.788;9.214;2023-12-07T09:14:09;2.20;99.90
40816;DHT22;26535;48.788;9.214;2023-12-07T09:16:35;2.30;99.90
40816;DHT22;26535;48.788;9.214;2023-12-07T09:19:21;2.40;99.90
40816;DHT22;26535;48.788;9.214;2023-12-07T09:21:46;2.40;99.90
40816;DHT22;26535;48.788;9.214;2023-12-07T09:24:32;2.40;99.90
40816;DHT22;26535;48.788;9.214;2023-12-07T09:27:45;2.50;99.90
40816;DHT22;26535;48.788;9.214;2023-12-07T09:30:20;2.70;99.90
40816;DHT22;26535;48.788;9.214;2023-12-07T09:33:16;2.70;99.90
40816;DHT22;26535;48.788;9.214;2023-12-07T09:35:44;2.80;99.90
40816;DHT22;26535;48.788;9.214;2023-12-07T09:38:28;2.80;99.90
40816;DHT22;26535;48.788;9.214;2023-12-07T09:41:06;2.80;99.90
40816;DHT22;26535;48.788;9.214;2023-12-07T09:43:53;2.90;99.90
40816;DHT22;26535;48.788;9.214;2023-12-07T09:50:17;3.10;99.90
40816;DHT22;26535;48.788;9.214;2023-12-07T09:53:09;3.20;99.90
40816;DHT22;26535;48.788;9.214;2023-12-07T09:56:29;3.30;99.90
40816;DHT22;26535;48.788;9.214;2023-12-07T10:02:46;3.50;99.90
40816;DHT22;26535;48.788;9.214;2023-12-07T10:15:24;3.90;99.90
40816;DHT22;26535;48.788;9.214;2023-12-07T10:21:31;4.00;99.90
40816;DHT22;26535;48.788;9.214;2023-12-07T10:24:43;4.10;99.90
40816;DHT22;26535;48.788;9.214;2023-12-07T10:27:21;4.20;99.90
40816;DHT22;26535;48.788;9.214;2023-12-07T10:30:02;4.30;99.90
40816;DHT22;26535;48.788;9.214;2023-12-07T10:32:29;4.30;99.90
40816;DHT22;26535;48.788;9.214;2023-12-07T10:35:00;4.40;99.90
40816;DHT22;26535;48.788;9.214;2023-12-07T10:37:42;4.60;99.90
40816;DHT22;26535;48.788;9.214;2023-12-07T10:47:32;5.40;99.60
40816;DHT22;26535;48.788;9.214;2023-12-07T10:53:53;6.30;97.60
40816;DHT22;26535;48.788;9.214;2023-12-07T10:57:08;6.80;96.00
40816;DHT22;26535;48.788;9.214;2023-12-07T10:59:48;7.30;94.60
40816;DHT22;26535;48.788;9.214;2023-12-07T11:03:04;7.70;93.90
40816;DHT22;26535;48.788;9.214;2023-12-07T11:05:36;8.40;92.80
40816;DHT22;26535;48.788;9.214;2023-12-07T11:14:07;9.80;87.00
40816;DHT22;26535;48.788;9.214;2023-12-07T11:16:41;10.00;85.70
40816;DHT22;26535;48.788;9.214;2023-12-07T11:22:16;10.50;83.90
40816;DHT22;26535;48.788;9.214;2023-12-07T11:25:20;11.20;82.70
40816;DHT22;26535;48.788;9.214;2023-12-07T11:28:04;10.70;81.80
40816;DHT22;26535;48.788;9.214;2023-12-07T11:34:06;11.20;80.80
40816;DHT22;26535;48.788;9.214;2023-12-07T11:38:02;12.10;77.20
40816;DHT22;26535;48.788;9.214;2023-12-07T11:40:40;12.70;75.80
40816;DHT22;26535;48.788;9.214;2023-12-07T11:43:06;13.00;74.30
40816;DHT22;26535;48.788;9.214;2023-12-07T11:45:48;13.30;73.20
40816;DHT22;26535;48.788;9.214;2023-12-07T11:48:23;13.70;71.40
40816;DHT22;26535;48.788;9.214;2023-12-07T11:51:04;13.10;71.40
40816;DHT22;26535;48.788;9.214;2023-12-07T11:53:38;13.00;71.40
40816;DHT22;26535;48.788;9.214;2023-12-07T11:56:25;13.00;70.00
40816;DHT22;26535;48.788;9.214;2023-12-07T11:59:02;13.00;70.40
40816;DHT22;26535;48.788;9.214;2023-12-07T12:02:23;12.80;70.20
40816;DHT22;26535;48.788;9.214;2023-12-07T12:05:14;13.00;70.30
40816;DHT22;26535;48.788;9.214;2023-12-07T12:07:46;14.00;69.90
40816;DHT22;26535;48.788;9.214;2023-12-07T12:10:39;14.30;68.70
40816;DHT22;26535;48.788;9.214;2023-12-07T12:16:46;14.80;65.80
40816;DHT22;26535;48.788;9.214;2023-12-07T12:19:37;13.70;67.60
40816;DHT22;26535;48.788;9.214;2023-12-07T12:22:04;12.90;68.90
40816;DHT22;26535;48.788;9.214;2023-12-07T12:24:35;12.40;69.40
40816;DHT22;26535;48.788;9.214;2023-12-07T12:27:05;12.50;70.00
40816;DHT22;26535;48.788;9.214;2023-12-07T12:29:31;12.30;70.70
40816;DHT22;26535;48.788;9.214;2023-12-07T12:31:57;12.00;71.00
40816;DHT22;26535;48.788;9.214;2023-12-07T12:34:24;11.80;71.90
40816;DHT22;26535;48.788;9.214;2023-12-07T12:36:50;11.80;71.50
40816;DHT22;26535;48.788;9.214;2023-12-07T12:39:16;12.20;71.30
40816;DHT22;26535;48.788;9.214;2023-12-07T12:41:48;12.30;70.40
40816;DHT22;26535;48.788;9.214;2023-12-07T12:44:21;11.90;69.60
40816;DHT22;26535;48.788;9.214;2023-12-07T12:47:06;11.50;71.00
40816;DHT22;26535;48.788;9.214;2023-12-07T12:49:53;11.40;71.50
40816;DHT22;26535;48.788;9.214;2023-12-07T12:52:19;11.00;72.50
40816;DHT22;26535;48.788;9.214;2023-12-07T12:55:38;10.80;73.00
40816;DHT22;26535;48.788;9.214;2023-12-07T12:58:12;10.90;73.10
40816;DHT22;26535;48.788;9.214;2023-12-07T13:00:57;11.00;73.00
40816;DHT22;26535;48.788;9.214;2023-12-07T13:03:29;10.80;73.40
40816;DHT22;26535;48.788;9.214;2023-12-07T13:06:10;11.00;72.60
40816;DHT22;26535;48.788;9.214;2023-12-07T13:08:40;11.20;72.10
40816;DHT22;26535;48.788;9.214;2023-12-07T13:11:06;11.20;72.60
40816;DHT22;26535;48.788;9.214;2023-12-07T13:13:35;11.10;73.30
40816;DHT22;26535;48.788;9.214;2023-12-07T13:16:05;10.80;73.40
40816;DHT22;26535;48.788;9.214;2023-12-07T13:22:11;10.20;74.20
40816;DHT22;26535;48.788;9.214;2023-12-07T13:24:37;9.60;74.60
40816;DHT22;26535;48.788;9.214;2023-12-07T13:27:13;9.30;75.60
40816;DHT22;26535;48.788;9.214;2023-12-07T13:29:47;9.10;76.10
40816;DHT22;26535;48.788;9.214;2023-12-07T13:32:25;8.80;76.20
40816;DHT22;26535;48.788;9.214;2023-12-07T13:34:50;8.60;77.00
40816;DHT22;26535;48.788;9.214;2023-12-07T13:37:16;8.60;77.80
40816;DHT22;26535;48.788;9.214;2023-12-07T13:39:42;8.70;77.60
40816;DHT22;26535;48.788;9.214;2023-12-07T13:42:12;8.60;77.70
40816;DHT22;26535;48.788;9.214;2023-12-07T13:44:37;8.50;77.90
40816;DHT22;26535;48.788;9.214;2023-12-07T13:47:03;8.80;77.80
40816;DHT22;26535;48.788;9.214;2023-12-07T13:49:34;9.00;77.50
40816;DHT22;26535;48.788;9.214;2023-12-07T13:52:35;9.00;76.20
40816;DHT22;26535;48.788;9.214;2023-12-07T13:55:01;9.20;76.30
40816;DHT22;26535;48.788;9.214;2023-12-07T13:57:30;9.10;76.70
40816;DHT22;26535;48.788;9.214;2023-12-07T13:59:56;9.20;75.60
40816;DHT22;26535;48.788;9.214;2023-12-07T14:05:47;9.00;74.50
40816;DHT22;26535;48.788;9.214;2023-12-07T14:08:16;8.80;73.50
40816;DHT22;26535;48.788;9.214;2023-12-07T14:30:34;7.70;70.20
40816;DHT22;26535;48.788;9.214;2023-12-07T14:34:13;7.50;71.10
40816;DHT22;26535;48.788;9.214;2023-12-07T14:41:13;7.00;72.70
40816;DHT22;26535;48.788;9.214;2023-12-07T14:44:58;6.70;73.10
40816;DHT22;26535;48.788;9.214;2023-12-07T14:51:40;6.30;74.80
40816;DHT22;26535;48.788;9.214;2023-12-07T14:54:28;6.20;75.30
40816;DHT22;26535;48.788;9.214;2023-12-07T15:00:43;5.90;76.70
40816;DHT22;26535;48.788;9.214;2023-12-07T15:03:12;5.70;77.40
40816;DHT22;26535;48.788;9.214;2023-12-07T15:05:38;5.60;78.40
40816;DHT22;26535;48.788;9.214;2023-12-07T15:08:03;5.50;78.90
40816;DHT22;26535;48.788;9.214;2023-12-07T15:10:29;5.40;79.20
40816;DHT22;26535;48.788;9.214;2023-12-07T15:13:07;5.30;79.60
40816;DHT22;26535;48.788;9.214;2023-12-07T15:15:33;5.20;80.10
40816;DHT22;26535;48.788;9.214;2023-12-07T15:17:59;5.10;80.50
40816;DHT22;26535;48.788;9.214;2023-12-07T15:20:25;5.00;80.70
40816;DHT22;26535;48.788;9.214;2023-12-07T15:22:59;4.90;81.30
40816;DHT22;26535;48.788;9.214;2023-12-07T15:25:48;4.70;81.80
40816;DHT22;26535;48.788;9.214;2023-12-07T15:28:17;4.60;83.10
40816;DHT22;26535;48.788;9.214;2023-12-07T15:30:45;4.50;83.60
40816;DHT22;26535;48.788;9.214;2023-12-07T15:33:14;4.40;83.20
40816;DHT22;26535;48.788;9.214;2023-12-07T15:35:40;4.30;83.40
40816;DHT22;26535;48.788;9.214;2023-12-07T15:38:09;4.20;84.00
40816;DHT22;26535;48.788;9.214;2023-12-07T15:40:39;4.20;84.30
40816;DHT22;26535;48.788;9.214;2023-12-07T15:43:06;4.00;84.80
40816;DHT22;26535;48.788;9.214;2023-12-07T15:45:32;3.90;85.40
40816;DHT22;26535;48.788;9.214;2023-12-07T15:47:57;3.90;86.00
40816;DHT22;26535;48.788;9.214;2023-12-07T15:50:32;3.80;86.90
40816;DHT22;26535;48.788;9.214;2023-12-07T15:52:58;3.70;86.70
40816;DHT22;26535;48.788;9.214;2023-12-07T15:55:27;3.70;87.20
40816;DHT22;26535;48.788;9.214;2023-12-07T15:57:53;3.60;86.90
40816;DHT22;26535;48.788;9.214;2023-12-07T16:00:18;3.50;87.10
40816;DHT22;26535;48.788;9.214;2023-12-07T16:02:44;3.40;87.40
40816;DHT22;26535;48.788;9.214;2023-12-07T16:05:10;3.30;88.00
40816;DHT22;26535;48.788;9.214;2023-12-07T16:07:38;3.30;88.40
40816;DHT22;26535;48.788;9.214;2023-12-07T16:10:08;3.20;89.30
40816;DHT22;26535;48.788;9.214;2023-12-07T16:12:35;3.10;89.00
40816;DHT22;26535;48.788;9.214;2023-12-07T16:15:02;3.10;89.10
40816;DHT22;26535;48.788;9.214;2023-12-07T16:17:27;3.00;89.30
40816;DHT22;26535;48.788;9.214;2023-12-07T16:19:58;3.00;89.00
40816;DHT22;26535;48.788;9.214;2023-12-07T16:22:28;2.90;89.80
40816;DHT22;26535;48.788;9.214;2023-12-07T16:24:54;2.90;90.40
40816;DHT22;26535;48.788;9.214;2023-12-07T16:27:19;2.80;90.30
40816;DHT22;26535;48.788;9.214;2023-12-07T16:29:45;2.80;89.90
40816;DHT22;26535;48.788;9.214;2023-12-07T16:32:30;2.80;89.70
40816;DHT22;26535;48.788;9.214;2023-12-07T16:35:31;2.70;89.80
40816;DHT22;26535;48.788;9.214;2023-12-07T16:37:58;2.70;89.70
40816;DHT22;26535;48.788;9.214;2023-12-07T16:40:44;2.60;90.30
40816;DHT22;26535;48.788;9.214;2023-12-07T16:43:25;2.60;90.30
40816;DHT22;26535;48.788;9.214;2023-12-07T16:45:51;2.70;90.20
40816;DHT22;26535;48.788;9.214;2023-12-07T16:48:18;2.70;90.30
40816;DHT22;26535;48.788;9.214;2023-12-07T16:50:44;2.60;90.80
40816;DHT22;26535;48.788;9.214;2023-12-07T16:53:09;2.60;90.60
40816;DHT22;26535;48.788;9.214;2023-12-07T16:55:38;2.60;90.70
40816;DHT22;26535;48.788;9.214;2023-12-07T16:58:10;2.50;90.90
40816;DHT22;26535;48.788;9.214;2023-12-07T17:00:39;2.50;90.90
40816;DHT22;26535;48.788;9.214;2023-12-07T17:06:28;2.40;91.20
40816;DHT22;26535;48.788;9.214;2023-12-07T17:09:00;2.40;91.70
40816;DHT22;26535;48.788;9.214;2023-12-07T17:11:54;2.40;91.80
40816;DHT22;26535;48.788;9.214;2023-12-07T17:14:23;2.30;91.60
40816;DHT22;26535;48.788;9.214;2023-12-07T17:20:11;2.30;91.80
40816;DHT22;26535;48.788;9.214;2023-12-07T17:22:45;2.30;92.00
40816;DHT22;26535;48.788;9.214;2023-12-07T17:28:44;2.20;92.10
40816;DHT22;26535;48.788;9.214;2023-12-07T17:31:25;2.10;92.30
40816;DHT22;26535;48.788;9.214;2023-12-07T17:33:55;2.10;92.40
40816;DHT22;26535;48.788;9.214;2023-12-07T17:36:21;2.10;92.30
40816;DHT22;26535;48.788;9.214;2023-12-07T17:38:47;2.10;92.60
40816;DHT22;26535;48.788;9.214;2023-12-07T17:41:16;2.10;92.70
40816;DHT22;26535;48.788;9.214;2023-12-07T17:43:53;2.10;92.80
40816;DHT22;26535;48.788;9.214;2023-12-07T17:46:20;2.10;92.80
40816;DHT22;26535;48.788;9.214;2023-12-07T17:48:58;2.10;92.90
40816;DHT22;26535;48.788;9.214;2023-12-07T17:54:55;2.00;93.00
40816;DHT22;26535;48.788;9.214;2023-12-07T17:57:27;1.90;93.30
40816;DHT22;26535;48.788;9.214;2023-12-07T17:59:55;1.90;93.60
40816;DHT22;26535;48.788;9.214;2023-12-07T18:02:24;1.90;93.70
40816;DHT22;26535;48.788;9.214;2023-12-07T18:04:53;1.90;93.70
40816;DHT22;26535;48.788;9.214;2023-12-07T18:07:21;1.80;93.90
40816;DHT22;26535;48.788;9.214;2023-12-07T18:09:51;1.80;94.30
40816;DHT22;26535;48.788;9.214;2023-12-07T18:12:27;1.70;94.50
40816;DHT22;26535;48.788;9.214;2023-12-07T18:15:11;1.70;94.50
40816;DHT22;26535;48.788;9.214;2023-12-07T18:17:46;1.60;94.90
40816;DHT22;26535;48.788;9.214;2023-12-07T18:20:23;1.60;94.90
40816;DHT22;26535;48.788;9.214;2023-12-07T18:22:49;1.60;95.00
40816;DHT22;26535;48.788;9.214;2023-12-07T18:25:14;1.60;95.10
40816;DHT22;26535;48.788;9.214;2023-12-07T18:28:01;1.60;94.90
40816;DHT22;26535;48.788;9.214;2023-12-07T18:30:49;1.50;95.00
40816;DHT22;26535;48.788;9.214;2023-12-07T18:33:18;1.50;95.10
40816;DHT22;26535;48.788;9.214;2023-12-07T18:35:53;1.40;95.10
40816;DHT22;26535;48.788;9.214;2023-12-07T18:38:18;1.40;95.30
40816;DHT22;26535;48.788;9.214;2023-12-07T18:40:44;1.40;95.20
40816;DHT22;26535;48.788;9.214;2023-12-07T18:43:12;1.40;95.10
40816;DHT22;26535;48.788;9.214;2023-12-07T18:45:38;1.50;95.00
40816;DHT22;26535;48.788;9.214;2023-12-07T18:48:05;1.40;95.00
40816;DHT22;26535;48.788;9.214;2023-12-07T18:50:31;1.40;94.90
40816;DHT22;26535;48.788;9.214;2023-12-07T18:52:57;1.40;95.00
40816;DHT22;26535;48.788;9.214;2023-12-07T18:55:23;1.30;94.70
40816;DHT22;26535;48.788;9.214;2023-12-07T18:57:49;1.30;95.00
40816;DHT22;26535;48.788;9.214;2023-12-07T19:00:15;1.20;95.10
40816;DHT22;26535;48.788;9.214;2023-12-07T19:02:42;1.20;95.20
40816;DHT22;26535;48.788;9.214;2023-12-07T19:05:09;1.20;95.40
40816;DHT22;26535;48.788;9.214;2023-12-07T19:07:35;1.10;95.30
40816;DHT22;26535;48.788;9.214;2023-12-07T19:10:05;1.10;95.50
40816;DHT22;26535;48.788;9.214;2023-12-07T19:12:31;1.10;95.70
40816;DHT22;26535;48.788;9.214;2023-12-07T19:14:58;1.10;95.80
40816;DHT22;26535;48.788;9.214;2023-12-07T19:17:24;1.00;96.30
40816;DHT22;26535;48.788;9.214;2023-12-07T19:19:49;1.00;96.10
40816;DHT22;26535;48.788;9.214;2023-12-07T19:22:16;1.10;95.90
40816;DHT22;26535;48.788;9.214;2023-12-07T19:24:42;1.10;95.90
40816;DHT22;26535;48.788;9.214;2023-12-07T19:27:07;1.10;95.60
40816;DHT22;26535;48.788;9.214;2023-12-07T19:29:33;1.20;95.60
40816;DHT22;26535;48.788;9.214;2023-12-07T19:31:59;1.20;95.60
40816;DHT22;26535;48.788;9.214;2023-12-07T19:34:25;1.20;95.90
40816;DHT22;26535;48.788;9.214;2023-12-07T19:36:55;1.30;95.30
40816;DHT22;26535;48.788;9.214;2023-12-07T19:39:22;1.40;95.00
40816;DHT22;26535;48.788;9.214;2023-12-07T19:41:49;1.50;94.80
40816;DHT22;26535;48.788;9.214;2023-12-07T19:44:15;1.50;94.80
40816;DHT22;26535;48.788;9.214;2023-12-07T19:46:42;1.70;94.60
40816;DHT22;26535;48.788;9.214;2023-12-07T19:49:08;1.70;94.40
40816;DHT22;26535;48.788;9.214;2023-12-07T19:51:35;1.70;94.40
40816;DHT22;26535;48.788;9.214;2023-12-07T19:54:00;1.70;94.40
40816;DHT22;26535;48.788;9.214;2023-12-07T19:56:28;1.70;94.50
40816;DHT22;26535;48.788;9.214;2023-12-07T19:58:55;1.80;94.50
40816;DHT22;26535;48.788;9.214;2023-12-07T20:01:23;1.80;94.60
40816;DHT22;26535;48.788;9.214;2023-12-07T20:03:49;1.80;94.60
40816;DHT22;26535;48.788;9.214;2023-12-07T20:06:15;1.80;94.50
40816;DHT22;26535;48.788;9.214;2023-12-07T20:08:41;1.80;94.50
40816;DHT22;26535;48.788;9.214;2023-12-07T20:11:07;1.90;94.50
40816;DHT22;26535;48.788;9.214;2023-12-07T20:13:33;1.90;94.30
40816;DHT22;26535;48.788;9.214;2023-12-07T20:15:59;1.90;94.50
40816;DHT22;26535;48.788;9.214;2023-12-07T20:18:25;1.90;94.70
40816;DHT22;26535;48.788;9.214;2023-12-07T20:20:54;2.00;94.30
40816;DHT22;26535;48.788;9.214;2023-12-07T20:23:21;2.00;94.30
40816;DHT22;26535;48.788;9.214;2023-12-07T20:25:47;2.00;94.00
40816;DHT22;26535;48.788;9.214;2023-12-07T20:28:12;2.00;94.00
40816;DHT22;26535;48.788;9.214;2023-12-07T20:30:38;2.10;94.10
40816;DHT22;26535;48.788;9.214;2023-12-07T20:33:04;2.00;93.90
40816;DHT22;26535;48.788;9.214;2023-12-07T20:35:29;2.00;93.80
40816;DHT22;26535;48.788;9.214;2023-12-07T20:37:55;2.00;94.00
40816;DHT22;26535;48.788;9.214;2023-12-07T20:40:21;2.00;94.00
40816;DHT22;26535;48.788;9.214;2023-12-07T20:42:47;2.10;93.90
40816;DHT22;26535;48.788;9.214;2023-12-07T20:45:12;2.10;93.90
40816;DHT22;26535;48.788;9.214;2023-12-07T20:47:39;2.00;94.10
40816;DHT22;26535;48.788;9.214;2023-12-07T20:50:05;2.00;94.30
40816;DHT22;26535;48.788;9.214;2023-12-07T20:52:31;2.00;94.30
40816;DHT22;26535;48.788;9.214;2023-12-07T20:54:57;2.00;94.50
40816;DHT22;26535;48.788;9.214;2023-12-07T20:57:23;1.90;94.40
40816;DHT22;26535;48.788;9.214;2023-12-07T20:59:49;1.90;94.60
40816;DHT22;26535;48.788;9.214;2023-12-07T21:02:15;1.80;94.70
40816;DHT22;26535;48.788;9.214;2023-12-07T21:04:40;1.90;94.40
40816;DHT22;26535;48.788;9.214;2023-12-07T21:07:06;2.00;94.30
40816;DHT22;26535;48.788;9.214;2023-12-07T21:09:32;2.10;94.20
40816;DHT22;26535;48.788;9.214;2023-12-07T21:11:58;2.10;93.90
40816;DHT22;26535;48.788;9.214;2023-12-07T21:14:42;2.10;93.80
40816;DHT22;26535;48.788;9.214;2023-12-07T21:17:10;2.10;93.70
40816;DHT22;26535;48.788;9.214;2023-12-07T21:19:42;2.20;93.70
40816;DHT22;26535;48.788;9.214;2023-12-07T21:22:08;2.20;94.00
40816;DHT22;26535;48.788;9.214;2023-12-07T21:24:34;2.20;93.90
40816;DHT22;26535;48.788;9.214;2023-12-07T21:27:00;2.30;94.00
40816;DHT22;26535;48.788;9.214;2023-12-07T21:29:26;2.30;94.00
40816;DHT22;26535;48.788;9.214;2023-12-07T21:31:52;2.30;93.80
40816;DHT22;26535;48.788;9.214;2023-12-07T21:34:18;2.30;93.90
40816;DHT22;26535;48.788;9.214;2023-12-07T21:36:44;2.30;93.90
40816;DHT22;26535;48.788;9.214;2023-12-07T21:39:10;2.30;94.20
40816;DHT22;26535;48.788;9.214;2023-12-07T21:41:37;2.20;94.20
40816;DHT22;26535;48.788;9.214;2023-12-07T21:44:03;2.20;94.30
40816;DHT22;26535;48.788;9.214;2023-12-07T21:46:29;2.10;94.70
40816;DHT22;26535;48.788;9.214;2023-12-07T21:48:55;2.10;94.70
40816;DHT22;26535;48.788;9.214;2023-12-07T21:51:21;2.00;94.80
40816;DHT22;26535;48.788;9.214;2023-12-07T21:53:47;2.00;95.10
40816;DHT22;26535;48.788;9.214;2023-12-07T21:56:13;2.00;95.10
40816;DHT22;26535;48.788;9.214;2023-12-07T21:58:38;2.10;95.20
40816;DHT22;26535;48.788;9.214;2023-12-07T22:01:05;2.10;95.10
40816;DHT22;26535;48.788;9.214;2023-12-07T22:03:30;2.20;95.30
40816;DHT22;26535;48.788;9.214;2023-12-07T22:05:56;2.30;96.10
40816;DHT22;26535;48.788;9.214;2023-12-07T22:08:22;2.40;96.10
40816;DHT22;26535;48.788;9.214;2023-12-07T22:10:48;2.40;95.40
40816;DHT22;26535;48.788;9.214;2023-12-07T22:13:13;2.50;95.00
40816;DHT22;26535;48.788;9.214;2023-12-07T22:15:39;2.40;94.80
40816;DHT22;26535;48.788;9.214;2023-12-07T22:18:05;2.40;94.90
40816;DHT22;26535;48.788;9.214;2023-12-07T22:20:30;2.40;95.40
40816;DHT22;26535;48.788;9.214;2023-12-07T22:22:56;2.50;95.80
40816;DHT22;26535;48.788;9.214;2023-12-07T22:25:22;2.50;96.10
40816;DHT22;26535;48.788;9.214;2023-12-07T22:27:48;2.50;95.30
40816;DHT22;26535;48.788;9.214;2023-12-07T22:30:15;2.50;95.20
40816;DHT22;26535;48.788;9.214;2023-12-07T22:32:44;2.50;95.30
40816;DHT22;26535;48.788;9.214;2023-12-07T22:35:11;2.60;95.80
40816;DHT22;26535;48.788;9.214;2023-12-07T22:37:37;2.50;95.50
40816;DHT22;26535;48.788;9.214;2023-12-07T22:40:04;2.50;95.40
40816;DHT22;26535;48.788;9.214;2023-12-07T22:42:30;2.50;95.40
40816;DHT22;26535;48.788;9.214;2023-12-07T22:44:56;2.50;95.20
40816;DHT22;26535;48.788;9.214;2023-12-07T22:47:22;2.50;95.60
40816;DHT22;26535;48.788;9.214;2023-12-07T22:49:49;2.50;95.40
40816;DHT22;26535;48.788;9.214;2023-12-07T22:52:15;2.50;95.30
40816;DHT22;26535;48.788;9.214;2023-12-07T22:54:41;2.50;95.10
40816;DHT22;26535;48.788;9.214;2023-12-07T22:57:07;2.40;95.60
40816;DHT22;26535;48.788;9.214;2023-12-07T22:59:34;2.40;95.50
40816;DHT22;26535;48.788;9.214;2023-12-07T23:02:00;2.40;95.10
40816;DHT22;26535;48.788;9.214;2023-12-07T23:04:26;2.40;95.30
40816;DHT22;26535;48.788;9.214;2023-12-07T23:06:52;2.40;95.70
40816;DHT22;26535;48.788;9.214;2023-12-07T23:09:17;2.50;95.70
40816;DHT22;26535;48.788;9.214;2023-12-07T23:11:44;2.60;95.80
40816;DHT22;26535;48.788;9.214;2023-12-07T23:14:10;2.60;95.00
40816;DHT22;26535;48.788;9.214;2023-12-07T23:16:36;2.60;94.60
40816;DHT22;26535;48.788;9.214;2023-12-07T23:19:01;2.60;94.60
40816;DHT22;26535;48.788;9.214;2023-12-07T23:21:31;2.60;94.80
40816;DHT22;26535;48.788;9.214;2023-12-07T23:23:57;2.70;95.10
40816;DHT22;26535;48.788;9.214;2023-12-07T23:26:22;2.70;95.60
40816;DHT22;26535;48.788;9.214;2023-12-07T23:28:48;2.70;95.70
40816;DHT22;26535;48.788;9.214;2023-12-07T23:31:14;2.80;95.50
40816;DHT22;26535;48.788;9.214;2023-12-07T23:33:41;2.80;95.80
40816;DHT22;26535;48.788;9.214;2023-12-07T23:36:07;2.80;95.70